Aviation Digital Data Service (ADDS)

Output produced by TAFs form (0420 UTC 26 January 2015)
found at http://aviationweather.gov/adds/tafs/
 
KTCS 252320Z 2600/2624 09007KT P6SM BKN250 
     FM260900 33006KT P6SM SCT150 BKN220 
     FM262300 13006KT P6SM SCT120 BKN200